createdAt,value
2022-08-31T00:00:07.562Z,1016.77
2022-08-31T00:14:07.542Z,1016.13
2022-08-31T00:28:07.610Z,1016.03
2022-08-31T00:42:07.660Z,1016.36
2022-08-31T00:56:07.652Z,1016.1
2022-08-31T01:10:07.671Z,1016.23
2022-08-31T01:24:07.797Z,1016.3
2022-08-31T01:38:07.793Z,1016.35
2022-08-31T01:52:07.878Z,1016.44
2022-08-31T02:06:07.985Z,1016.43
2022-08-31T02:20:07.923Z,1016.38
2022-08-31T02:34:07.971Z,1016.44
2022-08-31T02:48:08.005Z,1016.35
2022-08-31T03:02:08.413Z,1016.23
2022-08-31T03:16:08.271Z,1016.21
2022-08-31T03:30:08.253Z,1015.98
2022-08-31T03:44:08.366Z,1015.94
2022-08-31T03:58:08.368Z,1015.59
2022-08-31T04:12:08.478Z,1015.69
2022-08-31T04:27:08.463Z,1015.56
2022-08-31T04:42:08.653Z,1015.75
2022-08-31T04:57:08.632Z,1015.74
2022-08-31T05:12:08.664Z,1015.89
2022-08-31T05:27:08.685Z,1015.79
2022-08-31T05:42:08.706Z,1015.76
2022-08-31T05:57:08.699Z,1015.86
2022-08-31T06:12:08.711Z,1015.89
2022-08-31T06:27:08.766Z,1016
2022-08-31T06:42:08.778Z,1016.16
2022-08-31T06:57:08.846Z,1016.06
2022-08-31T07:12:08.936Z,1016.1
2022-08-31T07:27:08.942Z,1015.95
2022-08-31T07:42:09.099Z,1016.18
2022-08-31T07:57:09.108Z,1016.24
2022-08-31T08:13:09.040Z,1016.2
2022-08-31T08:28:23.102Z,1016.27
2022-08-31T08:44:09.089Z,1016.17
2022-08-31T08:59:10.989Z,1016.16
2022-08-31T09:14:09.071Z,1016.16
2022-08-31T09:29:09.119Z,1016.07
2022-08-31T09:44:09.207Z,1015.92
2022-08-31T09:59:09.194Z,1015.76
2022-08-31T10:14:09.295Z,1015.48
2022-08-31T10:29:09.261Z,1015.36
2022-08-31T11:00:31.464Z,1015.07
2022-08-31T11:15:31.657Z,1014.86
2022-08-31T11:30:31.674Z,1014.69
2022-08-31T11:45:32.276Z,1014.71
2022-08-31T12:01:31.980Z,1014.76
2022-08-31T12:16:32.002Z,1014.86
2022-08-31T12:31:32.001Z,1014.73
2022-08-31T12:46:32.105Z,1014.64
2022-08-31T13:01:32.306Z,1014.57
2022-08-31T13:16:32.212Z,1014.39
2022-08-31T13:31:32.193Z,1014.39
2022-08-31T13:46:42.217Z,1014.23
2022-08-31T14:01:32.537Z,1014.24
2022-08-31T14:17:32.468Z,1014.2
2022-08-31T14:33:32.508Z,1014.05
2022-08-31T14:48:32.615Z,1014
2022-08-31T15:03:32.531Z,1013.98
2022-08-31T15:18:32.537Z,1013.97
2022-08-31T15:33:32.553Z,1013.93
2022-08-31T15:48:32.557Z,1014.06
2022-08-31T16:04:32.548Z,1014.02
2022-08-31T16:19:35.303Z,1013.86
2022-08-31T16:34:32.607Z,1013.85
2022-08-31T16:49:32.624Z,1013.87
2022-08-31T17:04:51.372Z,1013.76
2022-08-31T17:19:32.659Z,1013.82
2022-08-31T17:34:32.715Z,1013.89
2022-08-31T17:49:36.628Z,1014.03
2022-08-31T18:04:32.852Z,1014.19
2022-08-31T18:19:32.808Z,1014.2
2022-08-31T18:33:32.860Z,1014.23
2022-08-31T18:47:32.840Z,1014.29
2022-08-31T19:01:33.884Z,1014.29
2022-08-31T19:15:33.627Z,1014.35
2022-08-31T19:30:32.992Z,1014.25
2022-08-31T19:44:53.612Z,1014.27
2022-08-31T19:58:33.028Z,1014.26
2022-08-31T20:12:32.995Z,1014.19
2022-08-31T20:26:36.091Z,1014.25
2022-08-31T20:40:33.073Z,1014.18
2022-08-31T20:54:33.032Z,1014.08
2022-08-31T21:08:33.046Z,1014.17
2022-08-31T21:22:33.056Z,1014.11
2022-08-31T21:36:33.808Z,1014.11
2022-08-31T21:50:33.049Z,1013.93
2022-08-31T22:04:33.050Z,1014.02
2022-08-31T22:19:00.057Z,1014.02
2022-08-31T22:32:33.053Z,1014.02
2022-08-31T22:46:33.347Z,1013.97
2022-08-31T23:00:33.860Z,1013.86
2022-08-31T23:14:33.848Z,1013.79
2022-08-31T23:28:33.893Z,1013.52
2022-08-31T23:42:33.827Z,1013.47
2022-08-31T23:56:33.831Z,1013.47
